createdAt,value
2022-10-24T00:00:28.669Z,15.67
2022-10-24T00:02:55.392Z,15.63
2022-10-24T00:05:22.106Z,15.63
2022-10-24T00:07:50.367Z,15.59
2022-10-24T00:10:17.723Z,15.55
2022-10-24T00:12:44.750Z,15.56
2022-10-24T00:15:12.703Z,15.48
2022-10-24T00:17:39.302Z,15.49
2022-10-24T00:20:07.234Z,15.50
2022-10-24T00:22:33.985Z,15.60
2022-10-24T00:25:00.614Z,15.57
2022-10-24T00:27:27.319Z,15.56
2022-10-24T00:29:54.033Z,15.56
2022-10-24T00:32:20.846Z,15.51
2022-10-24T00:34:47.465Z,15.48
2022-10-24T00:37:14.234Z,15.42
2022-10-24T00:39:40.878Z,15.39
2022-10-24T00:42:07.583Z,15.45
2022-10-24T00:44:38.595Z,15.52
2022-10-24T00:47:10.887Z,15.57
2022-10-24T00:49:48.629Z,15.55
2022-10-24T00:52:20.663Z,15.52
2022-10-24T00:54:48.082Z,15.54
2022-10-24T00:57:39.476Z,15.49
2022-10-24T01:00:23.386Z,15.50
2022-10-24T01:02:50.043Z,15.54
2022-10-24T01:05:19.198Z,15.57
2022-10-24T01:08:14.355Z,15.65
2022-10-24T01:11:11.299Z,15.63
2022-10-24T01:14:14.163Z,15.56
2022-10-24T01:16:52.236Z,15.58
2022-10-24T01:19:50.735Z,15.51
2022-10-24T01:22:20.861Z,15.61
2022-10-24T01:25:04.118Z,15.64
2022-10-24T01:27:44.838Z,15.72
2022-10-24T01:30:16.409Z,15.63
2022-10-24T01:33:30.299Z,15.66
2022-10-24T01:36:07.578Z,15.58
2022-10-24T01:38:46.664Z,15.64
2022-10-24T01:41:17.432Z,15.52
2022-10-24T01:44:07.000Z,15.59
2022-10-24T01:46:41.714Z,15.59
2022-10-24T01:49:14.817Z,15.64
2022-10-24T01:51:42.276Z,15.51
2022-10-24T01:54:10.935Z,15.53
2022-10-24T01:56:37.778Z,15.55
2022-10-24T01:59:06.157Z,15.50
2022-10-24T02:01:32.878Z,15.60
2022-10-24T02:04:06.031Z,15.58
2022-10-24T02:06:39.063Z,15.56
2022-10-24T02:09:13.842Z,15.61
2022-10-24T02:11:41.903Z,15.69
2022-10-24T02:14:21.258Z,15.75
2022-10-24T02:16:48.126Z,15.69
2022-10-24T02:19:15.805Z,15.67
2022-10-24T02:22:02.287Z,15.65
2022-10-24T02:24:41.053Z,15.63
2022-10-24T02:27:14.647Z,15.70
2022-10-24T02:30:11.151Z,15.76
2022-10-24T02:32:43.995Z,15.65
2022-10-24T02:35:14.300Z,15.60
2022-10-24T02:37:47.614Z,15.64
2022-10-24T02:40:16.715Z,15.62
2022-10-24T02:42:46.304Z,15.71
2022-10-24T02:45:15.491Z,15.72
2022-10-24T02:47:45.503Z,15.75
2022-10-24T02:50:13.724Z,15.77
2022-10-24T02:52:43.139Z,15.77
2022-10-24T02:55:12.008Z,15.72
2022-10-24T02:57:39.554Z,15.76
2022-10-24T03:00:07.687Z,15.82
2022-10-24T03:02:35.544Z,15.70
2022-10-24T03:05:02.200Z,15.76
2022-10-24T03:07:31.832Z,15.66
2022-10-24T03:09:58.468Z,15.74
2022-10-24T03:12:25.189Z,15.72
2022-10-24T03:14:51.832Z,15.73
2022-10-24T03:17:18.364Z,15.66
2022-10-24T03:19:45.816Z,15.68
2022-10-24T03:22:12.521Z,15.74
2022-10-24T03:24:44.349Z,15.68
2022-10-24T03:27:11.469Z,15.61
2022-10-24T03:29:38.060Z,15.65
2022-10-24T03:32:05.677Z,15.66
2022-10-24T03:34:32.856Z,15.70
2022-10-24T03:36:59.458Z,15.69
2022-10-24T03:39:26.201Z,15.67
2022-10-24T03:41:52.881Z,15.58
2022-10-24T03:44:19.527Z,15.61
2022-10-24T03:46:46.190Z,15.58
2022-10-24T03:49:12.840Z,15.51
2022-10-24T03:51:39.439Z,15.50
2022-10-24T03:54:06.016Z,15.49
2022-10-24T03:56:32.670Z,15.54
2022-10-24T03:58:59.276Z,15.47
2022-10-24T04:01:26.063Z,15.39
2022-10-24T04:03:52.755Z,15.40
2022-10-24T04:06:19.436Z,15.37
2022-10-24T04:08:46.197Z,15.37
2022-10-24T04:11:12.966Z,15.31
2022-10-24T04:13:40.805Z,15.45
2022-10-24T04:16:08.246Z,15.51
2022-10-24T04:18:34.966Z,15.48
2022-10-24T04:21:02.061Z,15.52
2022-10-24T04:23:31.022Z,15.57
2022-10-24T04:25:57.607Z,15.51
2022-10-24T04:28:24.383Z,15.54
2022-10-24T04:30:59.837Z,15.54
2022-10-24T04:33:26.474Z,15.60
2022-10-24T04:35:53.242Z,15.66
2022-10-24T04:38:19.965Z,15.59
2022-10-24T04:40:52.518Z,15.67
2022-10-24T04:43:20.586Z,15.65
2022-10-24T04:45:47.888Z,15.73
2022-10-24T04:48:15.292Z,15.90
2022-10-24T04:50:43.499Z,15.85
2022-10-24T04:53:10.319Z,15.94
2022-10-24T04:58:04.821Z,15.97
2022-10-24T05:00:31.889Z,15.91
2022-10-24T05:02:59.204Z,15.88
2022-10-24T05:05:26.183Z,15.90
2022-10-24T05:07:53.027Z,15.87
2022-10-24T05:10:19.783Z,15.84
2022-10-24T05:12:46.729Z,15.81
2022-10-24T05:15:15.191Z,15.81
2022-10-24T05:17:42.192Z,15.69
2022-10-24T05:20:09.491Z,15.63
2022-10-24T05:22:36.775Z,15.71
2022-10-24T05:25:03.740Z,15.69
2022-10-24T05:27:30.533Z,15.63
2022-10-24T05:29:57.224Z,15.67
2022-10-24T05:32:24.416Z,15.70
2022-10-24T05:34:51.578Z,15.60
2022-10-24T05:37:18.816Z,15.61
2022-10-24T05:39:45.468Z,15.62
2022-10-24T05:42:12.045Z,15.62
2022-10-24T05:44:39.066Z,15.63
2022-10-24T05:47:05.834Z,15.68
2022-10-24T05:49:32.813Z,15.60
2022-10-24T05:51:59.715Z,15.56
2022-10-24T05:54:33.250Z,15.60
2022-10-24T05:57:09.566Z,15.59
2022-10-24T05:59:36.169Z,15.61
2022-10-24T06:02:03.359Z,15.67
2022-10-24T06:04:30.091Z,15.70
2022-10-24T06:06:56.630Z,15.64
2022-10-24T06:09:23.152Z,15.61
2022-10-24T06:11:49.682Z,15.76
2022-10-24T06:14:17.183Z,15.65
2022-10-24T06:16:43.757Z,15.70
2022-10-24T06:19:10.388Z,15.73
2022-10-24T06:21:37.041Z,15.75
2022-10-24T06:24:03.825Z,15.73
2022-10-24T06:26:30.398Z,15.75
2022-10-24T06:28:57.087Z,15.77
2022-10-24T06:31:25.780Z,15.73
2022-10-24T06:33:54.226Z,15.77
2022-10-24T06:36:20.961Z,15.86
2022-10-24T06:38:47.616Z,15.90
2022-10-24T06:41:15.052Z,15.90
2022-10-24T06:43:42.622Z,15.96
2022-10-24T06:46:10.805Z,15.92
2022-10-24T06:48:37.777Z,16.01
2022-10-24T06:51:04.678Z,16.04
2022-10-24T06:53:32.619Z,16.04
2022-10-24T06:56:04.068Z,16.05
2022-10-24T06:58:35.926Z,16.11
2022-10-24T07:01:11.651Z,16.11
2022-10-24T07:03:39.105Z,16.12
2022-10-24T07:06:17.417Z,16.13
2022-10-24T07:08:45.086Z,16.00
2022-10-24T07:11:11.918Z,16.05
2022-10-24T07:13:38.947Z,16.13
2022-10-24T07:16:06.891Z,16.09
2022-10-24T07:18:33.871Z,16.15
2022-10-24T07:21:22.623Z,16.21
2022-10-24T07:23:52.028Z,16.21
2022-10-24T07:26:19.180Z,16.23
2022-10-24T07:28:46.818Z,16.27
2022-10-24T07:31:16.897Z,16.26
2022-10-24T07:33:43.559Z,16.31
2022-10-24T07:36:10.252Z,16.33
2022-10-24T07:38:37.299Z,16.26
2022-10-24T07:41:06.664Z,16.40
2022-10-24T07:43:33.715Z,16.36
2022-10-24T07:48:28.203Z,16.46
2022-10-24T07:50:54.795Z,16.44
2022-10-24T07:53:21.422Z,16.48
2022-10-24T07:55:48.039Z,16.44
2022-10-24T07:58:15.002Z,16.43
2022-10-24T08:00:45.279Z,16.47
2022-10-24T08:03:12.551Z,16.58
2022-10-24T08:05:42.399Z,16.58
2022-10-24T08:08:30.880Z,16.61
2022-10-24T08:10:56.029Z,16.68
2022-10-24T08:13:22.586Z,16.70
2022-10-24T08:15:49.183Z,16.70
2022-10-24T08:18:15.724Z,16.67
2022-10-24T08:20:42.385Z,16.74
2022-10-24T08:23:09.029Z,16.73
2022-10-24T08:25:35.634Z,16.75
2022-10-24T08:28:04.083Z,16.76
2022-10-24T08:30:33.337Z,16.79
2022-10-24T08:33:00.021Z,16.77
2022-10-24T08:35:26.839Z,16.78
2022-10-24T08:37:53.462Z,16.96
2022-10-24T08:40:20.907Z,17.03
2022-10-24T08:42:49.036Z,17.03
2022-10-24T08:45:43.384Z,17.12
2022-10-24T08:48:14.770Z,17.22
2022-10-24T08:50:45.619Z,17.24
2022-10-24T08:53:31.507Z,17.26
2022-10-24T08:56:00.745Z,17.37
2022-10-24T08:58:56.563Z,17.37
2022-10-24T09:01:39.861Z,17.36
2022-10-24T09:04:10.179Z,17.35
2022-10-24T09:06:37.148Z,17.41
2022-10-24T09:09:21.155Z,17.34
2022-10-24T09:12:02.567Z,17.37
2022-10-24T09:14:36.412Z,17.34
2022-10-24T09:17:11.412Z,17.35
2022-10-24T09:19:38.462Z,17.36
2022-10-24T09:22:07.638Z,17.43
2022-10-24T09:24:46.771Z,17.34
2022-10-24T09:29:48.423Z,17.26
2022-10-24T09:32:18.872Z,17.29
2022-10-24T09:34:46.287Z,17.30
2022-10-24T09:37:37.729Z,17.31
2022-10-24T09:40:24.346Z,17.21
2022-10-24T09:42:55.737Z,17.23
2022-10-24T09:45:35.626Z,17.31
2022-10-24T09:48:07.668Z,17.27
2022-10-24T09:50:35.746Z,17.34
2022-10-24T09:53:04.350Z,17.34
2022-10-24T09:55:32.063Z,17.35
2022-10-24T09:58:04.245Z,17.28
2022-10-24T10:00:34.403Z,17.32
2022-10-24T10:03:07.222Z,17.29
2022-10-24T10:05:52.611Z,17.34
2022-10-24T10:08:22.761Z,17.34
2022-10-24T10:11:02.308Z,17.35
2022-10-24T10:13:30.672Z,17.37
2022-10-24T10:16:02.568Z,17.35
2022-10-24T10:18:32.352Z,17.36
2022-10-24T10:21:00.767Z,17.34
2022-10-24T10:23:39.983Z,17.46
2022-10-24T10:26:21.817Z,17.42
2022-10-24T10:29:22.924Z,17.43
2022-10-24T10:32:13.696Z,17.36
2022-10-24T10:34:46.241Z,17.32
2022-10-24T10:37:35.889Z,17.31
2022-10-24T10:40:17.369Z,17.31
2022-10-24T10:43:13.318Z,17.34
2022-10-24T10:45:50.756Z,17.41
2022-10-24T10:48:45.098Z,17.46
2022-10-24T10:51:45.481Z,17.31
2022-10-24T10:54:24.213Z,17.40
2022-10-24T10:56:56.827Z,17.49
2022-10-24T10:59:45.179Z,17.46
2022-10-24T11:02:56.554Z,17.69
2022-10-24T11:05:48.134Z,18.20
2022-10-24T11:08:53.865Z,18.65
2022-10-24T11:11:28.649Z,18.93
2022-10-24T11:14:03.852Z,19.13
2022-10-24T11:16:31.497Z,19.31
2022-10-24T11:19:05.125Z,19.49
2022-10-24T11:21:34.766Z,19.41
2022-10-24T11:24:15.163Z,19.26
2022-10-24T11:26:59.527Z,19.40
2022-10-24T11:29:42.245Z,19.30
2022-10-24T11:32:22.106Z,19.27
2022-10-24T11:34:54.567Z,19.20
2022-10-24T11:37:28.096Z,19.16
2022-10-24T11:39:59.666Z,19.24
2022-10-24T11:43:03.626Z,19.26
2022-10-24T11:45:39.065Z,19.19
2022-10-24T11:48:14.878Z,18.99
2022-10-24T11:51:01.207Z,18.97
2022-10-24T11:53:33.579Z,18.92
2022-10-24T11:56:06.324Z,18.74
2022-10-24T11:58:36.794Z,18.57
2022-10-24T12:01:15.233Z,18.68
2022-10-24T12:04:18.829Z,18.51
2022-10-24T12:07:19.708Z,18.34
2022-10-24T12:10:05.765Z,18.29
2022-10-24T12:12:32.374Z,18.27
2022-10-24T12:15:28.467Z,18.17
2022-10-24T12:18:22.473Z,18.03
2022-10-24T12:20:55.331Z,17.90
2022-10-24T12:23:25.467Z,17.90
2022-10-24T12:26:19.122Z,17.82
2022-10-24T12:29:01.458Z,17.79
2022-10-24T12:31:33.234Z,17.71
2022-10-24T12:34:23.172Z,17.57
2022-10-24T12:37:12.286Z,17.57
2022-10-24T12:39:47.336Z,17.52
2022-10-24T12:42:14.372Z,17.58
2022-10-24T12:44:42.409Z,17.60
2022-10-24T12:47:43.089Z,17.66
2022-10-24T12:50:21.867Z,17.73
2022-10-24T12:52:48.572Z,17.68
2022-10-24T12:55:39.315Z,17.65
2022-10-24T12:58:25.111Z,17.70
2022-10-24T13:01:01.950Z,17.59
2022-10-24T13:03:50.930Z,17.59
2022-10-24T13:06:37.736Z,17.60
2022-10-24T13:09:13.142Z,17.72
2022-10-24T13:12:05.459Z,17.65
2022-10-24T13:14:55.926Z,17.70
2022-10-24T13:17:50.412Z,18.02
2022-10-24T13:20:22.385Z,18.14
2022-10-24T13:22:51.019Z,18.29
2022-10-24T13:25:20.588Z,18.39
2022-10-24T13:28:25.104Z,18.32
2022-10-24T13:31:17.389Z,18.20
2022-10-24T13:33:45.891Z,18.09
2022-10-24T13:36:17.848Z,18.04
2022-10-24T13:38:50.532Z,17.88
2022-10-24T13:41:28.589Z,17.91
2022-10-24T13:44:00.456Z,17.99
2022-10-24T13:46:53.320Z,17.97
2022-10-24T13:49:28.732Z,17.90
2022-10-24T13:52:00.197Z,17.85
2022-10-24T13:54:31.377Z,17.84
2022-10-24T13:57:01.271Z,17.89
2022-10-24T13:59:37.341Z,17.86
2022-10-24T14:02:21.895Z,17.88
2022-10-24T14:04:50.658Z,17.81
2022-10-24T14:07:23.545Z,17.81
2022-10-24T14:10:00.720Z,17.84
2022-10-24T14:12:30.986Z,17.72
2022-10-24T14:14:59.076Z,17.70
2022-10-24T14:17:29.362Z,17.75
2022-10-24T14:20:02.129Z,17.75
2022-10-24T14:22:39.850Z,17.66
2022-10-24T14:25:36.567Z,17.64
2022-10-24T14:28:18.337Z,17.64
2022-10-24T14:31:02.929Z,17.60
2022-10-24T14:33:32.229Z,17.56
2022-10-24T14:36:03.668Z,17.58
2022-10-24T14:38:31.009Z,17.61
2022-10-24T14:41:08.259Z,17.58
2022-10-24T14:43:42.505Z,17.58
2022-10-24T14:46:09.649Z,17.57
2022-10-24T14:48:37.331Z,17.60
2022-10-24T14:51:11.889Z,17.50
2022-10-24T14:53:39.645Z,17.44
2022-10-24T14:56:34.866Z,17.40
2022-10-24T14:59:07.654Z,17.27
2022-10-24T15:01:34.460Z,17.34
2022-10-24T15:04:04.794Z,17.29
2022-10-24T15:06:43.235Z,17.33
2022-10-24T15:09:12.662Z,17.24
2022-10-24T15:11:47.933Z,17.26
2022-10-24T15:14:51.992Z,17.18
2022-10-24T15:17:32.655Z,17.20
2022-10-24T15:20:02.705Z,17.15
2022-10-24T15:22:37.786Z,17.05
2022-10-24T15:25:19.166Z,17.03
2022-10-24T15:27:46.525Z,16.89
2022-10-24T15:30:20.216Z,16.88
2022-10-24T15:32:48.971Z,16.87
2022-10-24T15:35:16.926Z,16.84
2022-10-24T15:37:58.942Z,16.87
2022-10-24T15:40:29.916Z,16.81
2022-10-24T15:42:56.781Z,16.77
2022-10-24T15:45:23.707Z,16.76
2022-10-24T15:47:51.573Z,16.72
2022-10-24T15:52:55.401Z,16.70
2022-10-24T15:55:24.978Z,16.61
2022-10-24T15:57:52.321Z,16.60
2022-10-24T16:00:22.568Z,16.59
2022-10-24T16:02:50.864Z,16.56
2022-10-24T16:05:22.193Z,16.61
2022-10-24T16:07:52.071Z,16.62
2022-10-24T16:10:21.278Z,16.68
2022-10-24T16:12:48.762Z,16.59
2022-10-24T16:15:25.899Z,16.57
2022-10-24T16:17:52.790Z,16.52
2022-10-24T16:20:19.667Z,16.42
2022-10-24T16:22:46.766Z,16.42
2022-10-24T16:25:19.368Z,16.42
2022-10-24T16:27:48.605Z,16.35
2022-10-24T16:30:20.826Z,16.34
2022-10-24T16:32:48.274Z,16.33
2022-10-24T16:35:21.879Z,16.26
2022-10-24T16:37:48.514Z,16.27
2022-10-24T16:40:15.222Z,16.31
2022-10-24T16:42:42.019Z,16.33
2022-10-24T16:45:09.793Z,16.38
2022-10-24T16:47:36.531Z,16.29
2022-10-24T16:50:04.294Z,16.27
2022-10-24T16:52:30.898Z,16.27
2022-10-24T16:54:57.548Z,16.23
2022-10-24T16:59:51.376Z,16.18
2022-10-24T17:02:18.270Z,16.04
2022-10-24T17:04:45.016Z,16.03
2022-10-24T17:07:13.071Z,16.08
2022-10-24T17:09:39.867Z,16.10
2022-10-24T17:12:07.928Z,16.10
2022-10-24T17:14:36.688Z,15.97
2022-10-24T17:17:04.876Z,16.02
2022-10-24T17:19:32.198Z,15.96
2022-10-24T17:21:59.162Z,16.03
2022-10-24T17:24:26.212Z,16.00
2022-10-24T17:26:53.558Z,16.00
2022-10-24T17:29:40.871Z,16.01
2022-10-24T17:32:08.246Z,15.94
2022-10-24T17:34:35.108Z,15.90
2022-10-24T17:37:04.466Z,16.00
2022-10-24T17:39:47.271Z,15.90
2022-10-24T17:42:13.954Z,15.88
2022-10-24T17:44:40.899Z,15.95
2022-10-24T17:47:07.804Z,15.80
2022-10-24T17:49:34.474Z,15.88
2022-10-24T17:52:01.077Z,15.89
2022-10-24T17:54:27.682Z,15.87
2022-10-24T17:56:54.248Z,15.83
2022-10-24T17:59:22.228Z,15.95
2022-10-24T18:01:49.597Z,15.96
2022-10-24T18:04:16.373Z,16.04
2022-10-24T18:06:43.429Z,16.04
2022-10-24T18:09:10.942Z,16.04
2022-10-24T18:11:37.681Z,16.08
2022-10-24T18:14:04.518Z,16.10
2022-10-24T18:16:31.244Z,16.01
2022-10-24T18:18:58.350Z,16.02
2022-10-24T18:21:25.566Z,16.16
2022-10-24T18:23:53.543Z,16.17
2022-10-24T18:26:24.498Z,16.12
2022-10-24T18:28:53.306Z,16.13
2022-10-24T18:31:22.288Z,16.20
2022-10-24T18:33:49.430Z,16.10
2022-10-24T18:36:21.773Z,16.08
2022-10-24T18:38:48.516Z,16.08
2022-10-24T18:41:27.224Z,16.11
2022-10-24T18:43:54.613Z,16.17
2022-10-24T18:46:21.882Z,16.15
2022-10-24T18:48:49.224Z,16.19
2022-10-24T18:51:30.830Z,16.19
2022-10-24T18:54:05.000Z,16.24
2022-10-24T18:56:31.770Z,16.26
2022-10-24T18:58:58.783Z,16.20
2022-10-24T19:01:34.187Z,16.22
2022-10-24T19:04:08.135Z,16.21
2022-10-24T19:06:36.108Z,16.12
2022-10-24T19:09:02.781Z,16.17
2022-10-24T19:11:29.522Z,16.16
2022-10-24T19:13:56.228Z,16.10
2022-10-24T19:16:28.746Z,16.19
2022-10-24T19:19:00.169Z,16.15
2022-10-24T19:21:26.869Z,16.11
2022-10-24T19:23:53.888Z,16.08
2022-10-24T19:26:20.857Z,16.11
2022-10-24T19:28:47.398Z,16.04
2022-10-24T19:31:15.103Z,16.06
2022-10-24T19:33:41.911Z,16.09
2022-10-24T19:36:09.883Z,16.05
2022-10-24T19:38:37.243Z,16.03
2022-10-24T19:41:08.078Z,16.01
2022-10-24T19:43:34.713Z,16.00
2022-10-24T19:46:18.709Z,15.98
2022-10-24T19:48:49.555Z,15.83
2022-10-24T19:51:17.492Z,15.93
2022-10-24T19:53:45.595Z,16.01
2022-10-24T19:56:20.162Z,15.80
2022-10-24T19:58:49.159Z,15.85
2022-10-24T20:01:20.853Z,15.79
2022-10-24T20:03:49.112Z,15.76
2022-10-24T20:06:16.308Z,15.77
2022-10-24T20:08:42.915Z,15.67
2022-10-24T20:11:10.042Z,15.67
2022-10-24T20:13:36.573Z,15.63
2022-10-24T20:16:06.474Z,15.68
2022-10-24T20:18:35.428Z,15.61
2022-10-24T20:21:04.294Z,15.61
2022-10-24T20:23:31.302Z,15.61
2022-10-24T20:26:09.671Z,15.62
2022-10-24T20:28:44.614Z,15.61
2022-10-24T20:31:23.130Z,15.50
2022-10-24T20:33:50.476Z,15.57
2022-10-24T20:36:17.631Z,15.49
2022-10-24T20:38:44.296Z,15.56
2022-10-24T20:41:10.975Z,15.54
2022-10-24T20:43:37.708Z,15.51
2022-10-24T20:46:06.525Z,15.43
2022-10-24T20:48:34.426Z,15.42
2022-10-24T20:51:14.697Z,15.44
2022-10-24T20:53:42.378Z,15.40
2022-10-24T20:56:11.574Z,15.42
2022-10-24T20:58:40.601Z,15.31
2022-10-24T21:01:21.811Z,15.25
2022-10-24T21:03:49.681Z,15.40
2022-10-24T21:06:19.268Z,15.33
2022-10-24T21:08:48.604Z,15.38
2022-10-24T21:11:17.424Z,15.33
2022-10-24T21:13:45.675Z,15.40
2022-10-24T21:16:12.679Z,15.38
2022-10-24T21:18:39.348Z,15.30
2022-10-24T21:21:09.496Z,15.38
2022-10-24T21:23:36.211Z,15.43
2022-10-24T21:26:05.149Z,15.40
2022-10-24T21:28:31.861Z,15.36
2022-10-24T21:31:04.486Z,15.28
2022-10-24T21:33:32.604Z,15.41
2022-10-24T21:36:03.778Z,15.30
2022-10-24T21:38:30.365Z,15.31
2022-10-24T21:41:04.734Z,15.20
2022-10-24T21:43:33.331Z,15.29
2022-10-24T21:46:12.993Z,15.32
2022-10-24T21:48:41.251Z,15.19
2022-10-24T21:51:10.622Z,15.27
2022-10-24T21:53:45.182Z,15.21
2022-10-24T21:56:14.903Z,15.20
2022-10-24T21:58:42.175Z,15.11
2022-10-24T22:01:10.756Z,15.26
2022-10-24T22:03:37.842Z,15.14
2022-10-24T22:06:04.499Z,15.09
2022-10-24T22:08:31.346Z,15.16
2022-10-24T22:11:00.516Z,15.19
2022-10-24T22:13:27.913Z,15.07
2022-10-24T22:15:55.267Z,15.02
2022-10-24T22:18:23.202Z,15.03
2022-10-24T22:20:50.812Z,15.03
2022-10-24T22:23:17.425Z,15.06
2022-10-24T22:25:44.670Z,14.95
2022-10-24T22:28:12.034Z,15.05
2022-10-24T22:30:39.747Z,15.04
2022-10-24T22:33:07.922Z,15.04
2022-10-24T22:35:35.028Z,15.07
2022-10-24T22:38:02.176Z,15.03
2022-10-24T22:40:31.641Z,14.92
2022-10-24T22:42:58.614Z,14.95
2022-10-24T22:45:25.640Z,14.94
2022-10-24T22:48:07.413Z,15.06
2022-10-24T22:50:54.404Z,15.10
2022-10-24T22:53:27.559Z,15.05
2022-10-24T22:55:54.280Z,15.07
2022-10-24T22:58:21.800Z,15.19
2022-10-24T23:00:54.192Z,15.22
2022-10-24T23:03:26.443Z,15.13
2022-10-24T23:06:05.028Z,15.15
2022-10-24T23:08:38.896Z,15.16
2022-10-24T23:11:05.967Z,15.07
2022-10-24T23:13:33.095Z,14.99
2022-10-24T23:16:09.691Z,14.93
2022-10-24T23:18:36.546Z,14.83
2022-10-24T23:21:20.063Z,14.81
2022-10-24T23:23:47.179Z,14.80
2022-10-24T23:26:30.209Z,14.64
2022-10-24T23:29:25.848Z,14.71
2022-10-24T23:31:52.776Z,14.65
2022-10-24T23:34:19.855Z,14.63
2022-10-24T23:36:46.775Z,14.68
2022-10-24T23:39:14.470Z,14.69
2022-10-24T23:41:41.746Z,14.73
2022-10-24T23:44:11.939Z,14.58
2022-10-24T23:46:45.288Z,14.64
2022-10-24T23:49:45.648Z,14.61
2022-10-24T23:52:20.741Z,14.53
2022-10-24T23:54:47.611Z,14.62
2022-10-24T23:57:17.527Z,14.56
2022-10-24T23:59:44.820Z,14.59
